createdAt,value
2022-12-08T00:01:21.039Z,30.33
2022-12-08T00:03:49.004Z,29.43
2022-12-08T00:06:41.141Z,25.07
2022-12-08T00:09:22.126Z,29.57
2022-12-08T00:11:55.480Z,33.47
2022-12-08T00:14:30.611Z,33.17
2022-12-08T00:16:58.769Z,25.87
2022-12-08T00:19:26.740Z,32.93
2022-12-08T00:21:54.912Z,29.00
2022-12-08T00:24:22.920Z,27.77
2022-12-08T00:26:50.326Z,26.03
2022-12-08T00:29:18.126Z,28.23
2022-12-08T00:31:45.755Z,34.87
2022-12-08T00:34:14.085Z,29.40
2022-12-08T00:36:41.850Z,18.77
2022-12-08T00:39:09.279Z,23.33
2022-12-08T00:41:55.163Z,28.47
2022-12-08T00:44:22.443Z,34.60
2022-12-08T00:46:49.774Z,29.10
2022-12-08T00:49:17.296Z,38.57
2022-12-08T00:51:44.955Z,33.53
2022-12-08T00:54:12.364Z,31.80
2022-12-08T00:56:39.601Z,32.50
2022-12-08T00:59:07.453Z,30.13
2022-12-08T01:01:36.033Z,23.30
2022-12-08T01:04:07.400Z,27.00
2022-12-08T01:06:37.841Z,32.73
2022-12-08T01:09:05.949Z,21.70
2022-12-08T01:11:33.421Z,32.50
2022-12-08T01:14:00.702Z,27.60
2022-12-08T01:16:29.459Z,29.40
2022-12-08T01:18:57.816Z,28.73
2022-12-08T01:21:25.572Z,23.90
2022-12-08T01:23:54.207Z,28.40
2022-12-08T01:26:21.542Z,34.60
2022-12-08T01:28:48.846Z,24.23
2022-12-08T01:31:18.904Z,25.40
2022-12-08T01:33:46.738Z,24.40
2022-12-08T01:36:19.872Z,26.80
2022-12-08T01:38:47.091Z,28.50
2022-12-08T01:41:18.543Z,34.47
2022-12-08T01:44:08.016Z,31.37
2022-12-08T01:46:36.233Z,33.73
2022-12-08T01:49:18.159Z,37.30
2022-12-08T01:52:03.453Z,33.47
2022-12-08T01:54:39.242Z,35.70
2022-12-08T01:57:08.923Z,36.57
2022-12-08T01:59:43.860Z,38.77
2022-12-08T02:02:12.163Z,41.93
2022-12-08T02:04:39.528Z,31.97
2022-12-08T02:07:08.285Z,41.43
2022-12-08T02:09:36.359Z,47.47
2022-12-08T02:12:03.691Z,30.67
2022-12-08T02:14:31.590Z,38.07
2022-12-08T02:17:21.880Z,36.50
2022-12-08T02:20:07.790Z,35.90
2022-12-08T02:22:57.576Z,35.33
2022-12-08T02:25:36.466Z,37.17
2022-12-08T02:28:22.615Z,38.97
2022-12-08T02:31:08.841Z,35.17
2022-12-08T02:33:54.974Z,36.43
2022-12-08T02:36:40.937Z,40.90
2022-12-08T02:39:20.322Z,37.93
2022-12-08T02:41:59.782Z,45.43
2022-12-08T02:44:33.127Z,34.27
2022-12-08T02:47:07.924Z,40.20
2022-12-08T02:49:35.966Z,51.17
2022-12-08T02:52:07.468Z,44.27
2022-12-08T02:54:35.404Z,41.47
2022-12-08T02:57:21.203Z,46.13
2022-12-08T02:59:56.084Z,44.90
2022-12-08T03:02:35.523Z,48.23
2022-12-08T03:05:15.070Z,42.37
2022-12-08T03:07:50.661Z,37.73
2022-12-08T03:10:44.337Z,35.87
2022-12-08T03:13:20.780Z,31.40
2022-12-08T03:15:50.449Z,31.20
2022-12-08T03:18:19.291Z,41.43
2022-12-08T03:20:47.572Z,22.93
2022-12-08T03:23:16.467Z,32.93
2022-12-08T03:25:54.034Z,30.57
2022-12-08T03:28:21.369Z,35.23
2022-12-08T03:30:50.443Z,33.60
2022-12-08T03:33:24.044Z,36.67
2022-12-08T03:35:51.500Z,34.13
2022-12-08T03:38:19.254Z,20.73
2022-12-08T03:41:09.695Z,38.80
2022-12-08T03:43:37.018Z,27.33
2022-12-08T03:46:04.363Z,28.90
2022-12-08T03:48:31.745Z,33.27
2022-12-08T03:50:59.122Z,20.77
2022-12-08T03:53:26.376Z,27.23
2022-12-08T03:55:54.303Z,29.63
2022-12-08T03:58:21.533Z,25.40
2022-12-08T04:00:48.849Z,40.13
2022-12-08T04:03:16.238Z,24.80
2022-12-08T04:05:43.674Z,29.53
2022-12-08T04:08:11.018Z,27.73
2022-12-08T04:10:38.375Z,31.63
2022-12-08T04:13:05.630Z,27.93
2022-12-08T04:15:32.912Z,28.93
2022-12-08T04:18:00.142Z,32.30
2022-12-08T04:20:27.396Z,28.23
2022-12-08T04:22:54.658Z,28.23
2022-12-08T04:25:22.147Z,23.90
2022-12-08T04:27:49.419Z,21.50
2022-12-08T04:30:16.774Z,32.27
2022-12-08T04:32:47.411Z,28.60
2022-12-08T04:35:14.963Z,26.10
2022-12-08T04:37:43.200Z,27.60
2022-12-08T04:40:11.010Z,26.23
2022-12-08T04:42:38.443Z,27.83
2022-12-08T04:45:06.229Z,28.93
2022-12-08T04:47:33.507Z,26.63
2022-12-08T04:50:00.913Z,25.33
2022-12-08T04:52:28.360Z,27.20
2022-12-08T04:54:55.626Z,27.00
2022-12-08T04:57:22.867Z,28.67
2022-12-08T04:59:50.137Z,23.33
2022-12-08T05:02:17.573Z,22.80
2022-12-08T05:04:44.982Z,17.37
2022-12-08T05:07:12.236Z,25.17
2022-12-08T05:09:39.579Z,22.23
2022-12-08T05:12:06.977Z,29.10
2022-12-08T05:14:34.274Z,21.00
2022-12-08T05:17:06.261Z,22.43
2022-12-08T05:19:36.764Z,22.20
2022-12-08T05:22:04.059Z,23.63
2022-12-08T05:24:31.287Z,26.47
2022-12-08T05:26:58.559Z,22.63
2022-12-08T05:29:25.798Z,30.13
2022-12-08T05:31:53.419Z,29.17
2022-12-08T05:34:20.754Z,29.63
2022-12-08T05:36:48.171Z,39.57
2022-12-08T05:39:15.460Z,31.90
2022-12-08T05:41:42.768Z,41.95
2022-12-08T05:44:10.048Z,35.33
2022-12-08T05:46:37.537Z,42.63
2022-12-08T05:49:04.822Z,41.17
2022-12-08T05:51:32.133Z,30.37
2022-12-08T05:53:59.475Z,41.27
2022-12-08T05:56:26.753Z,39.70
2022-12-08T05:58:54.059Z,35.77
2022-12-08T06:01:31.753Z,36.63
2022-12-08T06:03:59.930Z,31.83
2022-12-08T06:06:27.634Z,38.27
2022-12-08T06:08:55.071Z,37.00
2022-12-08T06:11:23.584Z,37.00
2022-12-08T06:13:51.262Z,37.53
2022-12-08T06:16:18.963Z,40.70
2022-12-08T06:18:46.646Z,34.23
2022-12-08T06:21:15.134Z,32.30
2022-12-08T06:23:42.935Z,36.33
2022-12-08T06:26:12.882Z,29.73
2022-12-08T06:28:40.579Z,35.13
2022-12-08T06:31:12.482Z,36.87
2022-12-08T06:33:39.818Z,27.60
2022-12-08T06:36:07.632Z,26.30
2022-12-08T06:38:38.231Z,31.53
2022-12-08T06:41:09.120Z,34.87
2022-12-08T06:43:36.504Z,26.13
2022-12-08T06:46:05.841Z,29.47
2022-12-08T06:48:33.262Z,32.63
2022-12-08T06:51:10.686Z,29.43
2022-12-08T06:53:38.169Z,28.13
2022-12-08T06:56:05.855Z,29.23
2022-12-08T06:58:33.278Z,30.43
2022-12-08T07:01:11.452Z,34.03
2022-12-08T07:03:39.531Z,21.80
2022-12-08T07:06:07.343Z,30.30
2022-12-08T07:08:35.237Z,39.47
2022-12-08T07:11:09.867Z,37.23
2022-12-08T07:13:37.169Z,35.13
2022-12-08T07:16:11.099Z,37.57
2022-12-08T07:18:38.714Z,33.13
2022-12-08T07:21:14.765Z,33.77
2022-12-08T07:23:42.639Z,40.17
2022-12-08T07:26:13.752Z,40.67
2022-12-08T07:28:44.310Z,36.40
2022-12-08T07:31:19.036Z,39.37
2022-12-08T07:33:46.495Z,39.40
2022-12-08T07:36:13.816Z,35.07
2022-12-08T07:38:41.132Z,39.10
2022-12-08T07:41:12.204Z,37.23
2022-12-08T07:43:39.732Z,39.73
2022-12-08T07:46:07.125Z,39.27
2022-12-08T07:48:34.424Z,37.67
2022-12-08T07:51:02.305Z,30.90
2022-12-08T07:53:29.589Z,32.77
2022-12-08T07:55:56.872Z,29.97
2022-12-08T07:58:24.545Z,30.47
2022-12-08T08:00:52.194Z,27.30
2022-12-08T08:03:19.566Z,41.53
2022-12-08T08:05:49.183Z,32.83
2022-12-08T08:08:16.962Z,26.80
2022-12-08T08:10:44.804Z,36.07
2022-12-08T08:13:12.141Z,27.90
2022-12-08T08:15:39.904Z,21.33
2022-12-08T08:18:07.891Z,28.53
2022-12-08T08:20:35.440Z,25.60
2022-12-08T08:23:02.792Z,25.70
2022-12-08T08:25:30.129Z,26.37
2022-12-08T08:27:57.414Z,20.87
2022-12-08T08:30:24.740Z,26.23
2022-12-08T08:32:52.389Z,28.90
2022-12-08T08:35:19.754Z,26.53
2022-12-08T08:37:49.233Z,25.53
2022-12-08T08:40:17.644Z,31.00
2022-12-08T08:42:44.907Z,29.03
2022-12-08T08:45:12.224Z,33.70
2022-12-08T08:47:39.526Z,32.30
2022-12-08T08:50:07.868Z,33.67
2022-12-08T08:52:35.456Z,29.93
2022-12-08T08:55:02.792Z,34.30
2022-12-08T08:57:30.097Z,36.30
2022-12-08T08:59:57.351Z,29.27
2022-12-08T09:02:25.358Z,31.73
2022-12-08T09:04:52.655Z,31.90
2022-12-08T09:07:19.968Z,32.23
2022-12-08T09:09:47.257Z,31.70
2022-12-08T09:12:14.600Z,32.00
2022-12-08T09:14:41.895Z,32.33
2022-12-08T09:17:09.230Z,31.20
2022-12-08T09:19:36.508Z,33.30
2022-12-08T09:22:03.837Z,30.03
2022-12-08T09:24:31.111Z,30.17
2022-12-08T09:26:58.381Z,35.60
2022-12-08T09:29:28.763Z,29.70
2022-12-08T09:31:59.879Z,31.33
2022-12-08T09:34:27.358Z,31.27
2022-12-08T09:36:54.604Z,73.47
2022-12-08T09:39:21.851Z,27.50
2022-12-08T09:41:58.238Z,25.57
2022-12-08T09:44:40.485Z,19.93
2022-12-08T09:47:14.216Z,19.63
2022-12-08T09:49:43.288Z,19.17
2022-12-08T09:52:21.162Z,19.90
2022-12-08T09:54:48.692Z,22.67
2022-12-08T09:57:17.691Z,23.10
2022-12-08T09:59:46.559Z,23.10
2022-12-08T10:02:24.741Z,24.73
2022-12-08T10:04:54.921Z,21.63
2022-12-08T10:07:25.476Z,27.73
2022-12-08T10:10:22.486Z,23.57
2022-12-08T10:12:54.884Z,25.03
2022-12-08T10:15:37.430Z,23.70
2022-12-08T10:18:10.064Z,20.03
2022-12-08T10:20:38.840Z,17.37
2022-12-08T10:23:06.201Z,21.43
2022-12-08T10:25:56.437Z,21.50
2022-12-08T10:28:23.702Z,17.83
2022-12-08T10:30:51.000Z,14.10
2022-12-08T10:33:20.296Z,12.77
2022-12-08T10:35:49.906Z,18.77
2022-12-08T10:38:18.789Z,21.33
2022-12-08T10:40:47.261Z,19.27
2022-12-08T10:43:15.760Z,21.63
2022-12-08T10:45:43.943Z,18.70
2022-12-08T10:48:16.594Z,23.10
2022-12-08T10:50:43.900Z,19.20
2022-12-08T10:53:16.086Z,20.93
2022-12-08T10:55:45.839Z,18.80
2022-12-08T10:58:25.336Z,19.53
2022-12-08T11:00:54.683Z,23.37
2022-12-08T11:03:25.594Z,23.00
2022-12-08T11:05:56.633Z,19.23
2022-12-08T11:08:24.612Z,18.33
2022-12-08T11:10:52.034Z,18.20
2022-12-08T11:13:21.962Z,17.73
2022-12-08T11:15:50.209Z,21.17
2022-12-08T11:18:28.681Z,17.20
2022-12-08T11:21:00.465Z,18.23
2022-12-08T11:23:28.557Z,18.00
2022-12-08T11:25:58.868Z,18.77
2022-12-08T11:28:26.478Z,18.93
2022-12-08T11:30:57.633Z,14.87
2022-12-08T11:33:28.988Z,16.10
2022-12-08T11:36:05.408Z,17.83
2022-12-08T11:38:33.676Z,16.83
2022-12-08T11:41:24.285Z,17.57
2022-12-08T11:43:54.712Z,14.20
2022-12-08T11:46:24.741Z,15.53
2022-12-08T11:49:05.961Z,13.47
2022-12-08T11:51:37.170Z,17.07
2022-12-08T11:54:07.565Z,14.93
2022-12-08T11:56:37.252Z,19.77
2022-12-08T11:59:11.317Z,15.90
2022-12-08T12:01:42.539Z,14.00
2022-12-08T12:04:17.746Z,13.27
2022-12-08T12:07:03.660Z,15.73
2022-12-08T12:09:43.197Z,13.80
2022-12-08T12:12:25.259Z,12.70
2022-12-08T12:15:12.577Z,14.03
2022-12-08T12:17:55.261Z,14.33
2022-12-08T12:20:28.892Z,16.60
2022-12-08T12:23:05.906Z,13.07
2022-12-08T12:25:34.170Z,13.97
2022-12-08T12:28:04.150Z,13.67
2022-12-08T12:30:50.763Z,14.33
2022-12-08T12:33:19.474Z,11.87
2022-12-08T12:35:50.563Z,16.97
2022-12-08T12:38:45.137Z,14.30
2022-12-08T12:41:14.022Z,11.70
2022-12-08T12:43:41.618Z,12.47
2022-12-08T12:46:24.294Z,12.43
2022-12-08T12:48:52.477Z,12.93
2022-12-08T12:51:38.368Z,14.53
2022-12-08T12:54:25.823Z,13.27
2022-12-08T12:56:53.213Z,12.50
2022-12-08T12:59:29.655Z,11.30
2022-12-08T13:01:57.383Z,15.30
2022-12-08T13:04:36.105Z,13.00
2022-12-08T13:07:03.582Z,15.20
2022-12-08T13:09:35.880Z,12.30
2022-12-08T13:12:19.917Z,16.03
2022-12-08T13:14:49.649Z,16.73
2022-12-08T13:17:20.890Z,13.87
2022-12-08T13:19:52.070Z,12.43
2022-12-08T13:22:38.334Z,13.17
2022-12-08T13:25:24.234Z,14.27
2022-12-08T13:27:55.131Z,16.30
2022-12-08T13:30:52.100Z,10.27
2022-12-08T13:33:27.641Z,11.07
2022-12-08T13:36:03.963Z,10.07
2022-12-08T13:38:33.839Z,12.30
2022-12-08T13:41:02.203Z,13.30
2022-12-08T13:44:10.569Z,7.53
2022-12-08T13:58:03.428Z,8.47
2022-12-08T14:00:30.938Z,7.97
2022-12-08T14:03:00.232Z,11.20
2022-12-08T14:05:55.079Z,5.27
2022-12-08T14:08:57.144Z,10.10
2022-12-08T14:11:08.839Z,8.40
2022-12-08T14:13:36.199Z,8.73
2022-12-08T14:16:03.633Z,12.20
2022-12-08T14:18:32.173Z,8.33
2022-12-08T14:23:51.382Z,10.93
2022-12-08T14:26:18.717Z,9.67
2022-12-08T14:28:46.119Z,9.40
2022-12-08T14:31:14.578Z,12.67
2022-12-08T14:33:42.985Z,12.90
2022-12-08T14:36:12.320Z,14.67
2022-12-08T14:38:39.995Z,11.63
2022-12-08T14:41:08.882Z,10.77
2022-12-08T14:43:36.370Z,16.10
2022-12-08T14:46:19.839Z,15.33
2022-12-08T14:48:47.383Z,11.83
2022-12-08T14:51:20.865Z,10.13
2022-12-08T14:53:48.418Z,14.93
2022-12-08T14:56:19.805Z,17.40
2022-12-08T14:58:48.669Z,19.80
2022-12-08T15:01:17.749Z,15.20
2022-12-08T15:03:50.636Z,18.17
2022-12-08T15:06:20.894Z,14.50
2022-12-08T15:08:52.368Z,19.23
2022-12-08T15:11:26.945Z,20.63
2022-12-08T15:13:54.596Z,12.03
2022-12-08T15:16:25.621Z,15.63
2022-12-08T15:19:05.365Z,14.50
2022-12-08T15:21:36.094Z,14.90
2022-12-08T15:24:03.725Z,17.50
2022-12-08T15:26:34.708Z,12.13
2022-12-08T15:29:11.489Z,16.37
2022-12-08T15:31:39.011Z,19.83
2022-12-08T15:34:06.369Z,17.67
2022-12-08T15:36:33.730Z,13.70
2022-12-08T15:39:01.251Z,14.97
2022-12-08T15:41:28.587Z,15.50
2022-12-08T15:43:55.995Z,17.93
2022-12-08T15:46:23.413Z,16.40
2022-12-08T15:48:56.468Z,17.23
2022-12-08T15:51:25.506Z,18.13
2022-12-08T15:53:52.967Z,15.60
2022-12-08T15:56:28.487Z,15.77
2022-12-08T15:58:57.708Z,17.93
2022-12-08T16:01:26.303Z,17.23
2022-12-08T16:07:19.536Z,14.00
2022-12-08T16:09:29.570Z,15.10
2022-12-08T16:12:16.116Z,16.47
2022-12-08T16:15:47.132Z,14.83
2022-12-08T16:17:34.384Z,15.00
2022-12-08T16:20:02.455Z,15.77
2022-12-08T16:25:20.905Z,15.30
2022-12-08T16:28:01.252Z,20.43
2022-12-08T16:30:29.205Z,15.73
2022-12-08T16:32:56.606Z,17.37
2022-12-08T16:35:24.128Z,15.73
2022-12-08T16:37:51.646Z,17.07
2022-12-08T16:40:19.230Z,21.70
2022-12-08T16:42:48.494Z,17.10
2022-12-08T16:45:23.618Z,20.63
2022-12-08T16:47:52.591Z,19.70
2022-12-08T16:50:21.462Z,17.13
2022-12-08T16:52:49.417Z,17.53
2022-12-08T16:55:17.965Z,20.07
2022-12-08T16:57:47.075Z,23.27
2022-12-08T17:00:18.183Z,19.97
2022-12-08T17:02:45.540Z,31.77
2022-12-08T17:05:15.098Z,26.50
2022-12-08T17:07:42.992Z,27.07
2022-12-08T17:10:12.373Z,22.30
2022-12-08T17:12:39.878Z,23.10
2022-12-08T17:15:11.828Z,34.23
2022-12-08T17:17:39.484Z,20.13
2022-12-08T17:20:08.604Z,25.23
2022-12-08T17:22:36.475Z,23.47
2022-12-08T17:25:04.587Z,25.03
2022-12-08T17:27:32.220Z,27.90
2022-12-08T17:29:59.608Z,23.60
2022-12-08T17:32:27.070Z,28.50
2022-12-08T17:34:54.525Z,31.67
2022-12-08T17:37:21.825Z,25.57
2022-12-08T17:39:49.231Z,25.07
2022-12-08T17:42:16.809Z,28.67
2022-12-08T17:44:46.512Z,30.67
2022-12-08T17:47:13.789Z,27.27
2022-12-08T17:49:41.181Z,27.70
2022-12-08T17:52:08.552Z,25.17
2022-12-08T17:54:36.433Z,28.70
2022-12-08T17:57:03.860Z,29.33
2022-12-08T17:59:31.380Z,32.27
2022-12-08T18:01:59.244Z,34.83
2022-12-08T18:04:27.026Z,32.87
2022-12-08T18:06:55.002Z,31.63
2022-12-08T18:09:22.602Z,29.93
2022-12-08T18:11:50.037Z,28.60
2022-12-08T18:14:17.833Z,30.23
2022-12-08T18:16:46.361Z,38.03
2022-12-08T18:19:14.644Z,28.17
2022-12-08T18:21:42.711Z,37.20
2022-12-08T18:24:16.202Z,36.83
2022-12-08T18:26:43.586Z,34.30
2022-12-08T18:29:10.954Z,42.80
2022-12-08T18:31:38.335Z,38.60
2022-12-08T18:34:05.803Z,39.87
2022-12-08T18:36:33.193Z,36.60
2022-12-08T18:39:03.368Z,42.63
2022-12-08T18:41:33.166Z,44.80
2022-12-08T18:44:00.584Z,46.67
2022-12-08T18:46:28.074Z,48.23
2022-12-08T18:49:03.335Z,40.93
2022-12-08T18:51:33.355Z,39.00
2022-12-08T18:54:00.786Z,38.10
2022-12-08T18:56:32.352Z,36.20
2022-12-08T18:59:03.860Z,45.13
2022-12-08T19:01:35.397Z,42.83
2022-12-08T19:04:27.526Z,96.53
2022-12-08T19:06:52.499Z,58.80
2022-12-08T19:09:20.336Z,49.50
2022-12-08T19:11:47.825Z,49.90
2022-12-08T19:14:15.268Z,47.63
2022-12-08T19:16:42.737Z,50.97
2022-12-08T19:19:10.243Z,49.90
2022-12-08T19:21:44.561Z,44.07
2022-12-08T19:24:13.375Z,41.70
2022-12-08T19:26:40.718Z,37.63
2022-12-08T19:29:08.477Z,41.33
2022-12-08T19:31:37.457Z,34.17
2022-12-08T19:34:09.145Z,38.90
2022-12-08T19:36:42.163Z,45.43
2022-12-08T19:39:32.701Z,43.27
2022-12-08T19:42:18.793Z,39.40
2022-12-08T19:44:55.228Z,39.17
2022-12-08T19:47:26.818Z,42.63
2022-12-08T19:50:15.177Z,37.63
2022-12-08T19:52:43.270Z,44.53
2022-12-08T19:55:10.799Z,49.10
2022-12-08T19:57:38.447Z,46.13
2022-12-08T20:00:06.921Z,46.07
2022-12-08T20:02:36.879Z,39.70
2022-12-08T20:05:05.428Z,37.23
2022-12-08T20:07:32.901Z,43.57
2022-12-08T20:10:00.593Z,55.73
2022-12-08T20:12:27.996Z,54.60
2022-12-08T20:14:55.503Z,75.77
2022-12-08T20:17:22.876Z,62.50
2022-12-08T20:19:50.358Z,50.50
2022-12-08T20:22:17.816Z,60.47
2022-12-08T20:24:48.950Z,58.67
2022-12-08T20:27:19.689Z,49.90
2022-12-08T20:29:47.098Z,59.90
2022-12-08T20:32:14.555Z,48.37
2022-12-08T20:34:42.132Z,44.07
2022-12-08T20:37:09.661Z,45.00
2022-12-08T20:39:37.195Z,48.37
2022-12-08T20:42:04.814Z,43.13
2022-12-08T20:44:32.189Z,41.70
2022-12-08T20:46:59.687Z,46.83
2022-12-08T20:49:34.545Z,51.40
2022-12-08T20:52:03.287Z,45.70
2022-12-08T20:54:30.963Z,41.20
2022-12-08T20:56:58.743Z,44.70
2022-12-08T20:59:26.972Z,51.30
2022-12-08T21:01:55.377Z,43.43
2022-12-08T21:04:23.501Z,52.63
2022-12-08T21:06:51.922Z,46.43
2022-12-08T21:09:19.599Z,48.27
2022-12-08T21:11:47.296Z,70.80
2022-12-08T21:14:14.894Z,56.03
2022-12-08T21:16:42.519Z,52.23
2022-12-08T21:19:11.177Z,105.50
2022-12-08T21:21:38.592Z,64.47
2022-12-08T21:24:06.563Z,60.63
2022-12-08T21:26:34.497Z,58.33
2022-12-08T21:29:01.994Z,62.00
2022-12-08T21:31:31.915Z,63.53
2022-12-08T21:33:59.836Z,62.97
2022-12-08T21:36:27.818Z,58.37
2022-12-08T21:38:55.951Z,68.50
2022-12-08T21:41:43.214Z,55.50
2022-12-08T21:44:11.578Z,55.53
2022-12-08T21:46:39.291Z,53.43
2022-12-08T21:49:07.095Z,55.10
2022-12-08T21:51:37.870Z,51.47
2022-12-08T21:54:05.523Z,50.67
2022-12-08T21:56:33.022Z,57.60
2022-12-08T21:59:00.553Z,76.73
2022-12-08T22:01:28.134Z,74.03
2022-12-08T22:03:55.834Z,66.27
2022-12-08T22:06:24.543Z,71.07
2022-12-08T22:08:52.453Z,58.73
2022-12-08T22:11:20.264Z,64.00
2022-12-08T22:13:47.749Z,60.97
2022-12-08T22:16:15.473Z,124.13
2022-12-08T22:18:43.806Z,75.17
2022-12-08T22:21:12.405Z,136.33
2022-12-08T22:23:40.321Z,69.07
2022-12-08T22:26:08.684Z,71.47
2022-12-08T22:28:38.714Z,104.07
2022-12-08T22:31:18.424Z,77.23
2022-12-08T22:33:45.999Z,114.53
2022-12-08T22:36:18.434Z,74.10
2022-12-08T22:38:46.044Z,84.07
2022-12-08T22:41:14.588Z,81.33
2022-12-08T22:43:42.528Z,69.77
2022-12-08T22:46:12.268Z,72.67
2022-12-08T22:48:40.728Z,68.83
2022-12-08T22:51:08.966Z,74.70
2022-12-08T22:53:36.540Z,74.33
2022-12-08T22:56:04.904Z,69.03
2022-12-08T22:58:32.341Z,64.07
2022-12-08T23:00:59.887Z,72.87
2022-12-08T23:03:27.569Z,68.00
2022-12-08T23:05:55.475Z,64.97
2022-12-08T23:08:23.642Z,60.10
2022-12-08T23:10:51.821Z,126.87
2022-12-08T23:13:19.725Z,81.10
2022-12-08T23:15:47.711Z,73.77
2022-12-08T23:18:16.270Z,67.90
2022-12-08T23:20:44.149Z,66.27
2022-12-08T23:23:12.543Z,72.37
2022-12-08T23:25:41.048Z,63.03
2022-12-08T23:28:09.331Z,70.17
2022-12-08T23:30:37.065Z,78.23
2022-12-08T23:33:04.794Z,71.73
2022-12-08T23:35:32.493Z,72.30
2022-12-08T23:38:00.325Z,66.23
2022-12-08T23:40:27.925Z,63.27
2022-12-08T23:42:55.511Z,77.22
2022-12-08T23:45:22.989Z,75.03
2022-12-08T23:47:50.380Z,69.97
2022-12-08T23:50:17.882Z,66.10
2022-12-08T23:52:45.455Z,81.73
2022-12-08T23:55:13.101Z,71.77
2022-12-08T23:57:40.572Z,74.17
